Time;durP1;ratioP1;P1;durP2;ratioP2;P2;SDS_P1;SDS_P2;PMS_P1;PMS_P2;Temp;Humidity;BMP_temperature;BMP_pressure;BME280_temperature;BME280_humidity;BME280_pressure;Samples;Min_cycle;Max_cycle;Signal;HPM_P1;HPM_P2
2023/03/01 00:01:05;;;;;;;80.50;38.33;;;;;;;-3.94;100.00;101845.41;4954252;29;20465;-78
2023/03/01 00:03:30;;;;;;;77.45;37.78;;;;;;;-3.98;100.00;101850.91;4938586;29;20042;-77
2023/03/01 00:05:58;;;;;;;83.60;39.90;;;;;;;-3.98;100.00;101856.47;4956811;28;20072;-77
2023/03/01 00:08:25;;;;;;;94.32;41.90;;;;;;;-4.25;100.00;101819.03;4973788;28;20027;-76
2023/03/01 00:11:00;;;;;;;86.25;40.45;;;;;;;-4.06;100.00;101851.03;4940004;28;20070;-77
2023/03/01 00:13:26;;;;;;;92.55;42.42;;;;;;;-4.13;100.00;101834.91;4956021;28;20468;-78
2023/03/01 00:15:53;;;;;;;88.93;42.30;;;;;;;-4.13;100.00;101836.88;4955987;28;20061;-79
2023/03/01 00:18:19;;;;;;;105.25;44.75;;;;;;;-4.13;100.00;101840.50;4973349;28;20034;-75
2023/03/01 00:20:53;;;;;;;97.47;43.75;;;;;;;-4.24;100.00;101828.22;4973271;28;20038;-76
2023/03/01 00:23:19;;;;;;;101.32;46.20;;;;;;;-4.13;100.00;101842.47;4955829;28;20030;-76
2023/03/01 00:25:46;;;;;;;81.10;41.67;;;;;;;-4.13;100.00;101848.06;4973380;28;20034;-76
2023/03/01 00:28:12;;;;;;;99.97;44.13;;;;;;;-4.15;100.00;101834.44;4973074;28;20117;-78
2023/03/01 00:31:09;;;;;;;85.72;39.85;;;;;;;-4.19;100.00;101828.78;4955711;28;20035;-76
2023/03/01 00:33:39;;;;;;;92.53;41.15;;;;;;;-4.21;100.00;101833.88;4972689;28;20138;-77
2023/03/01 00:36:15;;;;;;;100.68;41.10;;;;;;;-4.23;100.00;101838.19;4955824;28;20093;-76
2023/03/01 00:38:44;;;;;;;89.80;42.58;;;;;;;-4.22;100.00;101840.63;4956430;28;20039;-78
2023/03/01 00:41:14;;;;;;;89.43;39.97;;;;;;;-4.24;100.00;101836.56;4957168;28;20031;-77
2023/03/01 00:43:42;;;;;;;93.53;39.78;;;;;;;-4.26;100.00;101819.38;4957200;28;20046;-76
2023/03/01 00:46:10;;;;;;;85.18;38.03;;;;;;;-4.28;100.00;101816.13;4957131;28;20129;-77
2023/03/01 00:48:37;;;;;;;85.88;38.95;;;;;;;-4.30;100.00;101801.72;4974249;28;20109;-78
2023/03/01 00:51:16;;;;;;;95.65;40.08;;;;;;;-4.32;100.00;101801.28;4940727;28;20123;-77
2023/03/01 00:53:43;;;;;;;91.05;39.60;;;;;;;-4.35;100.00;101800.00;4974160;28;20042;-80
2023/03/01 00:56:11;;;;;;;82.63;39.95;;;;;;;-4.36;100.00;101806.72;4956863;28;20031;-81
2023/03/01 00:58:39;;;;;;;86.15;38.03;;;;;;;-4.38;100.00;101805.47;4924936;28;20053;-78
2023/03/01 01:01:22;;;;;;;93.32;41.03;;;;;;;-4.40;100.00;101807.81;4956724;28;20026;-79
2023/03/01 01:03:51;;;;;;;82.18;37.15;;;;;;;-4.43;100.00;101809.34;4974341;28;20489;-79
2023/03/01 01:06:28;;;;;;;83.03;36.28;;;;;;;-4.45;100.00;101808.03;4940911;28;20045;-80
2023/03/01 01:08:55;;;;;;;85.15;38.17;;;;;;;-4.55;100.00;101805.75;4956616;28;20065;-80
2023/03/01 01:11:25;;;;;;;88.15;38.60;;;;;;;-4.54;100.00;101810.16;4956556;28;20046;-81
2023/03/01 01:13:51;;;;;;;85.22;39.35;;;;;;;-4.55;100.00;101808.53;4925091;28;20048;-79
2023/03/01 01:16:26;;;;;;;91.05;39.92;;;;;;;-4.57;100.00;101808.09;4956672;28;20345;-81
2023/03/01 01:18:53;;;;;;;84.47;37.60;;;;;;;-4.59;100.00;101802.06;4940949;28;20102;-81
2023/03/01 01:21:23;;;;;;;89.28;40.00;;;;;;;-4.63;100.00;101794.41;4956450;28;20042;-76
2023/03/01 01:23:50;;;;;;;90.70;40.25;;;;;;;-4.67;100.00;101787.91;4959235;28;20046;-76
2023/03/01 01:26:20;;;;;;;98.03;42.88;;;;;;;-4.68;100.00;101808.59;4979373;28;20027;-74
2023/03/01 01:28:47;;;;;;;90.35;41.72;;;;;;;-4.65;100.00;101807.06;4979156;28;20122;-74
2023/03/01 01:31:14;;;;;;;98.50;42.70;;;;;;;-4.65;100.00;101807.88;4961042;28;20031;-76
2023/03/01 01:33:40;;;;;;;98.13;44.95;;;;;;;-4.65;100.00;101807.06;4977473;28;20055;-76
2023/03/01 01:36:08;;;;;;;97.70;44.95;;;;;;;-4.91;100.00;101757.28;4977416;28;20035;-78
2023/03/01 01:38:43;;;;;;;109.28;43.85;;;;;;;-4.71;100.00;101789.75;4944331;28;20081;-75
2023/03/01 01:41:11;;;;;;;89.78;41.13;;;;;;;-4.75;100.00;101794.41;4959828;28;20026;-75
2023/03/01 01:43:43;;;;;;;96.47;40.60;;;;;;;-4.77;100.00;101791.19;4928356;28;20189;-76
2023/03/01 01:46:50;;;;;;;88.43;40.30;;;;;;;-4.79;100.00;101770.38;4944797;28;20041;-76
2023/03/01 01:49:27;;;;;;;98.00;43.80;;;;;;;-4.78;100.00;101774.81;4959923;28;20030;-77
2023/03/01 01:52:00;;;;;;;94.22;42.03;;;;;;;-4.79;100.00;101775.97;4959564;28;20034;-75
2023/03/01 01:54:53;;;;;;;102.60;43.22;;;;;;;-4.80;100.00;101775.16;4977855;28;20035;-76
2023/03/01 01:57:24;;;;;;;90.00;42.25;;;;;;;-4.84;100.00;101765.06;4955605;28;20510;-77
2023/03/01 01:59:53;;;;;;;83.18;43.28;;;;;;;-4.83;100.00;101772.25;4944314;28;20043;-75
2023/03/01 02:02:19;;;;;;;94.85;41.67;;;;;;;-4.90;100.00;101756.13;4976757;28;20441;-79
2023/03/01 02:04:46;;;;;;;96.35;41.78;;;;;;;-4.86;100.00;101761.84;4943756;28;20062;-78
2023/03/01 02:07:23;;;;;;;99.07;45.00;;;;;;;-5.21;100.00;101706.66;4959661;28;20026;-80
2023/03/01 02:09:52;;;;;;;92.32;41.85;;;;;;;-4.85;100.00;101774.56;4977175;28;20034;-77
2023/03/01 02:12:19;;;;;;;100.20;44.42;;;;;;;-4.87;100.00;101763.81;4958727;28;20473;-78
2023/03/01 02:14:45;;;;;;;97.55;41.65;;;;;;;-4.88;100.00;101770.53;4943031;28;20113;-77
2023/03/01 02:17:13;;;;;;;95.97;42.38;;;;;;;-4.96;100.00;101748.38;4958662;28;20041;-75
2023/03/01 02:19:47;;;;;;;94.00;40.28;;;;;;;-4.92;100.00;101758.47;4958291;28;20030;-76
2023/03/01 02:22:19;;;;;;;92.40;42.88;;;;;;;-4.94;100.00;101752.44;4975894;28;20026;-77
2023/03/01 02:25:36;;;;;;;94.93;40.80;;;;;;;-4.96;100.00;101757.53;4957820;28;20428;-78
2023/03/01 02:28:37;;;;;;;93.60;41.53;;;;;;;-4.99;100.00;101769.38;4932306;28;20117;-77
2023/03/01 02:33:56;;;;;;;101.32;43.53;;;;;;;-5.02;100.00;101775.69;4955610;29;20543;-77
2023/03/01 02:36:35;;;;;;;88.72;40.45;;;;;;;-5.02;100.00;101769.28;4955074;28;20043;-75
2023/03/01 02:39:03;;;;;;;89.47;42.78;;;;;;;-5.09;100.00;101755.94;4954528;29;20469;-76
2023/03/01 02:41:34;;;;;;;83.88;41.92;;;;;;;-5.02;100.00;101772.88;4954567;29;20032;-77
2023/03/01 02:44:00;;;;;;;86.72;39.58;;;;;;;-5.00;100.00;101772.50;4954468;29;20039;-76
2023/03/01 02:46:26;;;;;;;92.47;41.33;;;;;;;-5.02;100.00;101775.69;4955619;29;20508;-77
2023/03/01 02:48:56;;;;;;;100.60;41.13;;;;;;;-5.02;100.00;101784.03;4938818;29;20047;-76
2023/03/01 02:52:00;;;;;;;88.72;41.50;;;;;;;-5.03;100.00;101792.72;4954220;29;20042;-76
2023/03/01 02:54:49;;;;;;;89.75;42.13;;;;;;;-5.36;100.00;101743.56;4955661;28;20031;-77
2023/03/01 02:57:15;;;;;;;97.63;42.05;;;;;;;-5.20;100.00;101765.94;4947991;28;20068;-78
2023/03/01 02:59:42;;;;;;;92.03;41.90;;;;;;;-5.07;100.00;101787.06;4954259;29;20059;-77
2023/03/01 03:02:35;;;;;;;92.57;42.30;;;;;;;-5.07;100.00;101787.88;4956014;28;20165;-78
2023/03/01 03:05:26;;;;;;;105.10;42.70;;;;;;;-5.06;100.00;101781.13;4955633;28;20111;-75
2023/03/01 03:07:52;;;;;;;98.85;44.15;;;;;;;-5.11;100.00;101778.56;4955260;28;20488;-76
2023/03/01 03:10:23;;;;;;;103.78;44.55;;;;;;;-5.12;100.00;101765.81;4953935;29;20058;-75
2023/03/01 03:13:30;;;;;;;98.57;44.42;;;;;;;-5.12;100.00;101770.59;4955350;28;20032;-76
2023/03/01 03:15:57;;;;;;;105.72;42.95;;;;;;;-5.05;100.00;101782.75;4954947;29;20039;-76
2023/03/01 03:18:25;;;;;;;93.65;43.33;;;;;;;-5.06;100.00;101785.91;4953936;29;20036;-75
2023/03/01 03:20:52;;;;;;;98.35;42.72;;;;;;;-5.13;100.00;101768.94;4953932;29;20069;-76
2023/03/01 03:23:19;;;;;;;104.25;46.45;;;;;;;-5.14;100.00;101773.72;4953989;29;20058;-75
2023/03/01 03:25:48;;;;;;;98.78;44.45;;;;;;;-5.15;100.00;101777.66;4954235;29;20035;-75
2023/03/01 03:28:15;;;;;;;99.25;45.50;;;;;;;-5.24;100.00;101756.66;4938252;29;20035;-75
2023/03/01 03:30:42;;;;;;;98.57;45.65;;;;;;;-5.15;100.00;101771.25;4954871;28;20046;-76
2023/03/01 03:33:08;;;;;;;100.55;45.38;;;;;;;-5.18;100.00;101760.81;4953674;29;20039;-75
2023/03/01 03:35:39;;;;;;;97.63;43.97;;;;;;;-5.18;100.00;101761.66;4953375;29;20106;-74
2023/03/01 03:38:09;;;;;;;100.82;45.90;;;;;;;-5.18;100.00;101753.28;4937559;29;20031;-75
2023/03/01 03:40:42;;;;;;;107.88;46.53;;;;;;;-5.21;100.00;101751.22;4938561;29;20050;-75
2023/03/01 03:43:15;;;;;;;107.95;44.75;;;;;;;-5.20;100.00;101752.00;4956103;28;20042;-75
2023/03/01 03:45:41;;;;;;;102.90;45.65;;;;;;;-5.21;100.00;101750.41;4938518;28;20081;-76
2023/03/01 03:48:09;;;;;;;105.00;47.20;;;;;;;-5.22;100.00;101754.34;4937970;29;20438;-76
2023/03/01 03:50:36;;;;;;;98.30;44.58;;;;;;;-5.37;100.00;101733.59;4954744;29;20082;-75
2023/03/01 03:53:06;;;;;;;105.75;45.75;;;;;;;-5.25;100.00;101749.44;4954559;29;20035;-75
2023/03/01 03:55:35;;;;;;;110.97;49.22;;;;;;;-5.30;100.00;101747.72;4954710;29;20043;-76
2023/03/01 03:58:06;;;;;;;125.25;50.83;;;;;;;-5.29;100.00;101746.56;4956000;28;20046;-75
2023/03/01 04:00:33;;;;;;;124.97;55.78;;;;;;;-5.89;100.00;101649.97;4954209;29;20042;-76
2023/03/01 04:03:00;;;;;;;112.25;50.10;;;;;;;-5.30;100.00;101739.34;4954418;29;20041;-75
2023/03/01 04:05:32;;;;;;;122.63;53.08;;;;;;;-5.31;100.00;101731.38;4954239;28;20039;-76
2023/03/01 04:08:03;;;;;;;;;;;;;;;-5.35;100.00;101734.03;4954719;28;20039;-76
2023/03/01 04:10:49;;;;;;;114.40;51.42;;;;;;;-5.36;100.00;101731.63;4954171;28;19996;-75
2023/03/01 04:13:19;;;;;;;111.72;45.95;;;;;;;-5.37;100.00;101729.97;4954568;28;20031;-75
2023/03/01 04:15:51;;;;;;;106.95;44.88;;;;;;;-5.38;100.00;101731.94;4954735;28;20034;-75
2023/03/01 04:18:19;;;;;;;112.65;49.03;;;;;;;-5.52;100.00;101721.19;4953537;29;20027;-75
2023/03/01 04:20:45;;;;;;;98.13;40.85;;;;;;;-5.44;100.00;101726.97;4955279;28;20027;-76
2023/03/01 04:23:19;;;;;;;113.28;44.67;;;;;;;-5.46;100.00;101724.53;4954109;29;20394;-76
2023/03/01 04:25:58;;;;;;;114.25;47.95;;;;;;;-5.44;100.00;101730.56;4954533;28;20342;-75
2023/03/01 04:28:30;;;;;;;96.90;44.60;;;;;;;-5.66;100.00;101694.84;4952821;29;20035;-75
2023/03/01 04:30:57;;;;;;;105.47;45.47;;;;;;;-5.47;100.00;101733.25;4951919;29;20035;-75
2023/03/01 04:33:24;;;;;;;102.07;44.28;;;;;;;-5.42;100.00;101735.78;4937684;28;20046;-74
2023/03/01 04:35:51;;;;;;;104.60;47.13;;;;;;;-5.43;100.00;101736.94;4952524;29;20055;-75
2023/03/01 04:38:21;;;;;;;114.25;46.08;;;;;;;-5.50;100.00;101731.94;4952744;29;20551;-75
2023/03/01 04:40:47;;;;;;;104.80;45.28;;;;;;;-5.55;100.00;101732.19;4954709;28;20031;-75
2023/03/01 04:43:14;;;;;;;114.15;48.67;;;;;;;-5.56;100.00;101725.81;4954728;29;20070;-75
2023/03/01 04:45:41;;;;;;;116.05;48.78;;;;;;;-5.56;100.00;101736.16;4953722;29;20039;-76
2023/03/01 04:48:06;;;;;;;114.75;47.95;;;;;;;-5.58;100.00;101725.34;4954738;28;20027;-74
2023/03/01 04:50:32;;;;;;;101.90;44.28;;;;;;;-5.57;100.00;101735.31;4953375;29;20070;-76
2023/03/01 04:52:58;;;;;;;109.38;44.75;;;;;;;-5.53;100.00;101732.66;4954817;28;20023;-75
2023/03/01 04:55:33;;;;;;;100.75;44.17;;;;;;;-5.49;100.00;101731.59;4953984;29;20031;-75
2023/03/01 04:57:59;;;;;;;108.32;45.60;;;;;;;-5.47;100.00;101734.06;4955765;28;20106;-75
2023/03/01 05:00:24;;;;;;;97.30;46.35;;;;;;;-5.41;100.00;101740.19;4957403;29;20118;-75
2023/03/01 05:02:55;;;;;;;104.18;45.33;;;;;;;-5.46;100.00;101738.47;4959005;29;20457;-75
2023/03/01 05:05:27;;;;;;;106.60;47.97;;;;;;;-5.35;100.00;101750.72;4941873;29;20118;-75
2023/03/01 05:07:58;;;;;;;104.95;46.20;;;;;;;-5.33;100.00;101742.03;4958565;28;20111;-75
2023/03/01 05:10:33;;;;;;;110.15;48.60;;;;;;;-5.33;100.00;101739.25;4957253;29;20033;-75
2023/03/01 05:12:59;;;;;;;95.65;44.22;;;;;;;-5.36;100.00;101743.56;4958388;28;20035;-75
2023/03/01 05:15:36;;;;;;;105.38;45.30;;;;;;;-5.34;100.00;101746.78;4954695;29;20118;-77
2023/03/01 05:18:02;;;;;;;101.13;45.13;;;;;;;-5.35;100.00;101747.13;4956942;29;20066;-75
2023/03/01 05:20:36;;;;;;;99.40;43.60;;;;;;;-5.34;100.00;101740.41;4958239;28;20093;-75
2023/03/01 05:23:04;;;;;;;100.85;46.40;;;;;;;-5.35;100.00;101739.59;4957407;28;20027;-75
2023/03/01 05:25:34;;;;;;;102.88;41.85;;;;;;;-5.36;100.00;101740.78;4956979;29;20035;-75
2023/03/01 05:28:12;;;;;;;91.20;41.20;;;;;;;-5.49;100.00;101719.66;4957715;28;20042;-75
2023/03/01 05:30:41;;;;;;;98.82;45.08;;;;;;;-5.35;100.00;101738.78;4940679;28;20066;-76
2023/03/01 05:33:13;;;;;;;96.43;44.40;;;;;;;-5.34;100.00;101743.19;4958812;28;20038;-75
2023/03/01 05:35:48;;;;;;;110.82;48.05;;;;;;;-5.34;100.00;101744.00;4980270;28;20074;-78
2023/03/01 05:38:19;;;;;;;101.57;43.60;;;;;;;-5.33;100.00;101742.84;4976672;28;20038;-75
2023/03/01 05:40:47;;;;;;;104.03;45.40;;;;;;;-5.30;100.00;101747.72;4978169;28;20567;-76
2023/03/01 05:43:14;;;;;;;106.55;47.45;;;;;;;-5.39;100.00;101724.75;4986227;28;20023;-77
2023/03/01 05:45:42;;;;;;;115.38;49.08;;;;;;;-5.27;100.00;101743.44;4955099;29;20043;-76
2023/03/01 05:48:11;;;;;;;113.30;48.17;;;;;;;-5.33;100.00;101731.72;4965774;28;20031;-79
2023/03/01 05:50:40;;;;;;;108.40;46.83;;;;;;;-5.26;100.00;101745.06;4975910;28;20031;-77
2023/03/01 05:53:15;;;;;;;118.75;50.30;;;;;;;-5.18;100.00;101747.72;4977437;28;20030;-79
2023/03/01 05:55:42;;;;;;;147.10;56.85;;;;;;;-5.13;100.00;101757.81;4977648;28;20035;-81
2023/03/01 05:58:11;;;;;;;162.10;62.33;;;;;;;-5.09;100.00;101755.94;4976211;28;20030;-81
2023/03/01 06:00:39;;;;;;;220.25;82.20;;;;;;;-5.16;100.00;101731.44;4977437;28;20031;-82
2023/03/01 06:03:06;;;;;;;207.45;77.95;;;;;;;-5.11;100.00;101727.63;4978116;28;20089;-80
2023/03/01 06:05:33;;;;;;;165.88;66.13;;;;;;;-4.88;100.00;101731.50;4975733;28;20031;-80
2023/03/01 06:08:00;;;;;;;136.82;55.10;;;;;;;-4.62;100.00;101739.44;4943887;28;20027;-81
2023/03/01 06:10:31;;;;;;;101.63;47.80;;;;;;;-4.44;100.00;101751.91;4974380;28;20037;-78
2023/03/01 06:12:58;;;;;;;108.30;49.13;;;;;;;-4.38;100.00;101749.69;4976157;28;20069;-80
2023/03/01 06:15:24;;;;;;;114.97;50.13;;;;;;;-4.36;100.00;101755.72;4959131;28;20070;-80
2023/03/01 06:17:50;;;;;;;124.97;54.22;;;;;;;-4.34;100.00;101748.63;4959264;28;20027;-79
2023/03/01 06:20:24;;;;;;;104.57;48.75;;;;;;;-4.29;100.00;101756.72;4976653;28;20484;-81
2023/03/01 06:22:51;;;;;;;102.00;49.13;;;;;;;-4.32;100.00;101740.69;4969241;28;20078;-80
2023/03/01 06:25:19;;;;;;;98.85;44.75;;;;;;;-4.19;100.00;101747.84;4975976;28;20030;-82
2023/03/01 06:27:45;;;;;;;102.32;44.05;;;;;;;-4.13;100.00;101750.38;4973145;28;20037;-80
2023/03/01 06:30:13;;;;;;;88.28;40.97;;;;;;;-4.10;100.00;101744.88;4975269;28;20030;-79
2023/03/01 06:32:41;;;;;;;94.82;43.28;;;;;;;-4.03;100.00;101735.91;4976021;28;20037;-80
2023/03/01 06:35:07;;;;;;;90.25;41.33;;;;;;;-3.93;100.00;101740.97;4976267;28;20539;-78
2023/03/01 06:37:33;;;;;;;87.53;43.40;;;;;;;-3.95;100.00;101732.13;4974481;28;20022;-78
2023/03/01 06:39:58;;;;;;;97.05;41.78;;;;;;;-3.88;100.00;101735.94;4958286;28;20429;-78
2023/03/01 06:42:24;;;;;;;94.43;43.15;;;;;;;-3.73;100.00;101744.66;4975870;28;20078;-77
2023/03/01 06:44:49;;;;;;;95.47;45.35;;;;;;;-3.71;100.00;101731.13;4976032;28;20038;-77
2023/03/01 06:47:15;;;;;;;90.13;41.63;;;;;;;-3.69;100.00;101712.03;4975021;28;20019;-77
2023/03/01 06:49:41;;;;;;;93.13;43.95;;;;;;;-3.38;100.00;101739.94;4974091;28;20358;-78
2023/03/01 06:52:06;;;;;;;110.03;46.80;;;;;;;-3.41;100.00;101705.16;4972340;28;20601;-79
2023/03/01 06:54:31;;;;;;;84.88;40.13;;;;;;;-3.20;100.00;101718.81;4972592;28;20034;-79
2023/03/01 06:56:57;;;;;;;83.95;41.88;;;;;;;-3.65;100.00;101626.38;4973793;28;20033;-79
2023/03/01 06:59:22;;;;;;;85.18;40.38;;;;;;;-2.95;100.00;101713.78;4973627;28;20041;-78
2023/03/01 07:01:48;;;;;;;79.07;41.40;;;;;;;-2.78;100.00;101721.75;4956490;28;20031;-79
2023/03/01 07:04:13;;;;;;;88.90;39.53;;;;;;;-2.65;100.00;101733.63;4958183;28;20147;-77
2023/03/01 07:06:39;;;;;;;84.88;42.42;;;;;;;-2.56;100.00;101734.19;4958138;28;20029;-78
2023/03/01 07:09:05;;;;;;;88.10;40.17;;;;;;;-2.46;100.00;101720.44;4958526;28;20027;-78
2023/03/01 07:11:30;;;;;;;102.07;46.45;;;;;;;-2.32;100.00;101719.09;4975724;28;20031;-76
2023/03/01 07:13:58;;;;;;;110.35;47.40;;;;;;;-2.17;100.00;101720.97;4958215;28;20426;-78
2023/03/01 07:16:24;;;;;;;118.82;45.80;;;;;;;-2.18;100.00;101703.38;4975574;28;20041;-78
2023/03/01 07:18:49;;;;;;;125.90;50.95;;;;;;;-1.86;100.00;101737.56;4974089;28;20125;-77
2023/03/01 07:21:16;;;;;;;122.03;48.83;;;;;;;-1.66;100.00;101727.94;4973952;28;20023;-78
2023/03/01 07:23:41;;;;;;;120.97;49.70;;;;;;;-0.66;100.00;101730.22;4975585;28;20063;-78
2023/03/01 07:26:07;;;;;;;103.63;45.63;;;;;;;2.19;100.00;101737.56;4975322;28;20188;-78
2023/03/01 07:28:38;;;;;;;97.18;43.00;;;;;;;5.50;100.00;101730.66;4975125;28;20392;-77
2023/03/01 07:31:03;;;;;;;90.32;41.55;;;;;;;8.30;100.00;101720.91;4975188;28;20031;-78
2023/03/01 07:33:29;;;;;;;91.38;40.30;;;;;;;10.20;100.00;101724.69;4973724;28;20031;-78
2023/03/01 07:35:59;;;;;;;86.43;40.53;;;;;;;11.98;89.28;101730.75;4975020;28;20050;-78
2023/03/01 07:38:25;;;;;;;92.90;43.80;;;;;;;13.44;71.67;101729.22;4975140;28;20027;-79
2023/03/01 07:40:50;;;;;;;80.53;41.42;;;;;;;14.82;58.08;101737.06;4974930;28;20026;-79
2023/03/01 07:43:15;;;;;;;83.97;40.10;;;;;;;16.12;51.05;101729.28;4974983;28;20027;-79
2023/03/01 07:45:41;;;;;;;91.57;42.28;;;;;;;17.57;45.68;101731.53;4974895;28;20034;-79
2023/03/01 07:48:06;;;;;;;89.70;43.22;;;;;;;18.86;42.23;101725.63;4973582;28;20026;-79
2023/03/01 07:50:32;;;;;;;83.25;44.08;;;;;;;19.74;38.23;101720.81;4974677;28;20037;-78
2023/03/01 07:52:57;;;;;;;88.47;44.72;;;;;;;19.88;34.29;101697.34;4974782;28;20029;-78
2023/03/01 07:55:24;;;;;;;85.63;43.05;;;;;;;20.52;34.23;101704.28;4974106;28;20027;-78
2023/03/01 07:57:51;;;;;;;86.22;43.90;;;;;;;20.94;31.92;101693.69;4975748;28;20035;-77
2023/03/01 08:00:32;;;;;;;90.05;45.92;;;;;;;21.36;29.54;101689.56;4974868;28;20097;-76
2023/03/01 08:03:01;;;;;;;87.63;44.00;;;;;;;21.64;29.23;101682.28;4975291;28;20034;-77
2023/03/01 08:05:29;;;;;;;78.15;43.78;;;;;;;22.18;29.28;101678.78;4974386;28;20547;-75
2023/03/01 08:07:54;;;;;;;79.15;44.72;;;;;;;22.74;28.06;101667.41;4956405;28;20364;-75
2023/03/01 08:10:23;;;;;;;74.80;41.85;;;;;;;22.52;26.42;101658.88;4975107;28;20469;-74
2023/03/01 08:12:53;;;;;;;72.32;42.38;;;;;;;22.98;26.85;101663.72;4957125;28;20026;-74
2023/03/01 08:15:19;;;;;;;70.95;39.33;;;;;;;23.16;25.99;101656.34;4957073;28;20034;-75
2023/03/01 08:17:45;;;;;;;62.28;35.38;;;;;;;22.95;24.74;101641.50;4974116;28;20077;-76
2023/03/01 08:20:12;;;;;;;52.67;31.95;;;;;;;22.70;24.82;101631.16;4956925;28;20064;-75
2023/03/01 08:22:40;;;;;;;49.55;30.67;;;;;;;22.96;25.20;101637.25;4974379;28;20124;-76
2023/03/01 08:25:07;;;;;;;58.50;33.03;;;;;;;23.74;25.04;101639.13;4940844;28;20050;-76
2023/03/01 08:27:32;;;;;;;54.33;30.45;;;;;;;24.15;23.60;101641.63;4974120;28;20030;-75
2023/03/01 08:29:59;;;;;;;55.28;32.05;;;;;;;24.18;23.65;101637.59;4974276;28;20030;-76
2023/03/01 08:32:25;;;;;;;50.80;29.52;;;;;;;23.86;23.61;101640.50;4972628;28;20042;-76
2023/03/01 08:34:52;;;;;;;53.85;31.05;;;;;;;23.48;23.83;101645.56;4953627;29;20048;-73
2023/03/01 08:37:17;;;;;;;54.08;32.65;;;;;;;23.16;24.38;101638.84;4954792;29;20075;-75
2023/03/01 08:39:42;;;;;;;52.22;29.73;;;;;;;22.66;24.04;101640.19;4954884;29;20398;-75
2023/03/01 08:42:08;;;;;;;47.25;29.40;;;;;;;22.10;24.38;101646.53;4954563;29;20418;-75
2023/03/01 08:44:34;;;;;;;51.70;30.48;;;;;;;21.62;25.26;101652.16;4954612;29;20028;-74
2023/03/01 08:47:02;;;;;;;55.15;30.17;;;;;;;21.17;25.21;101654.47;4954746;28;20027;-74
2023/03/01 08:49:28;;;;;;;47.92;30.33;;;;;;;20.93;26.17;101660.94;4954925;28;20071;-73
2023/03/01 08:51:54;;;;;;;52.15;30.60;;;;;;;20.84;26.00;101658.31;4954507;28;20117;-74
2023/03/01 08:54:26;;;;;;;30.55;21.85;;;;;;;20.55;25.51;101665.44;4954021;28;20118;-76
2023/03/01 08:56:52;;;;;;;33.53;23.45;;;;;;;20.16;25.25;101662.56;4954653;28;20031;-75
2023/03/01 08:59:19;;;;;;;22.58;14.05;;;;;;;19.86;24.66;101664.38;4954998;28;20114;-74
2023/03/01 09:01:46;;;;;;;24.50;17.65;;;;;;;19.14;24.56;101662.06;4954605;28;20031;-75
2023/03/01 09:04:15;;;;;;;27.60;16.65;;;;;;;18.61;25.24;101660.72;4954434;29;20043;-77
2023/03/01 09:06:41;;;;;;;31.52;20.88;;;;;;;18.30;26.01;101669.38;4937601;29;20556;-76
2023/03/01 09:09:14;;;;;;;32.38;20.23;;;;;;;17.82;25.79;101663.44;4949935;29;20032;-75
2023/03/01 09:11:40;;;;;;;38.40;22.45;;;;;;;17.35;26.26;101671.31;4934042;29;20450;-76
2023/03/01 09:14:05;;;;;;;41.55;24.33;;;;;;;16.77;27.05;101655.06;4935738;29;20024;-76
2023/03/01 09:16:35;;;;;;;40.95;24.65;;;;;;;15.84;27.76;101661.69;4933761;29;20190;-76
2023/03/01 09:19:03;;;;;;;34.60;20.65;;;;;;;14.59;29.50;101665.88;4935398;29;20035;-73
2023/03/01 09:21:28;;;;;;;36.88;21.98;;;;;;;13.62;30.49;101665.25;4933934;29;20038;-74
2023/03/01 09:23:56;;;;;;;35.35;21.75;;;;;;;13.09;31.47;101666.34;4933787;29;20123;-75
2023/03/01 09:26:22;;;;;;;42.00;23.67;;;;;;;12.97;32.36;101657.88;4934024;29;20078;-77
2023/03/01 09:28:49;;;;;;;42.60;22.50;;;;;;;13.05;31.98;101667.75;4934836;29;20027;-75
2023/03/01 09:31:16;;;;;;;44.75;22.90;;;;;;;12.76;32.30;101661.66;4934663;29;20056;-78
2023/03/01 09:33:42;;;;;;;44.55;22.65;;;;;;;12.55;32.82;101667.03;4917792;29;20117;-77
2023/03/01 09:36:13;;;;;;;35.97;21.52;;;;;;;12.45;33.83;101668.31;4954036;29;20504;-76
2023/03/01 09:38:40;;;;;;;38.80;22.52;;;;;;;12.30;34.26;101675.84;4953079;29;20122;-76
2023/03/01 09:41:47;;;;;;;40.17;23.30;;;;;;;12.17;34.35;101672.28;4949750;29;20090;-76
2023/03/01 09:44:57;;;;;;;44.50;23.73;;;;;;;11.82;35.20;101663.03;4914969;29;20063;-76
2023/03/01 09:47:31;;;;;;;40.10;22.13;;;;;;;11.72;35.73;101670.75;4861132;29;20048;-76
2023/03/01 09:50:16;;;;;;;38.72;23.00;;;;;;;11.53;35.80;101677.63;4940244;29;20572;-75
2023/03/01 09:53:02;;;;;;;39.28;24.70;;;;;;;11.23;35.67;101684.88;4956534;29;20035;-76
2023/03/01 09:55:38;;;;;;;47.00;24.10;;;;;;;10.93;36.20;101674.06;4957583;29;20032;-75
2023/03/01 09:58:39;;;;;;;43.10;27.42;;;;;;;10.77;37.03;101680.78;4956213;29;20082;-76
2023/03/01 10:01:43;;;;;;;40.17;23.95;;;;;;;10.55;37.32;101677.03;4957544;29;20110;-77
2023/03/01 10:04:31;;;;;;;51.67;23.73;;;;;;;10.32;37.66;101649.63;4957484;29;20035;-75
2023/03/01 10:07:09;;;;;;;43.00;24.13;;;;;;;10.28;38.23;101671.81;4957373;29;20051;-77
2023/03/01 10:09:44;;;;;;;46.03;24.55;;;;;;;10.01;38.58;101663.66;4957640;29;20035;-76
2023/03/01 10:12:14;;;;;;;39.30;22.10;;;;;;;9.89;38.74;101669.38;4957324;29;20027;-77
2023/03/01 10:15:00;;;;;;;35.22;21.77;;;;;;;9.75;38.59;101670.59;4956120;29;20417;-75
2023/03/01 10:17:46;;;;;;;39.20;22.42;;;;;;;9.56;39.60;101657.28;4942624;29;20102;-76
2023/03/01 10:20:18;;;;;;;35.47;22.98;;;;;;;9.46;39.86;101667.75;4957270;29;20548;-77
2023/03/01 10:22:50;;;;;;;37.92;23.55;;;;;;;9.45;40.33;101671.06;4957534;29;20373;-76
2023/03/01 10:25:17;;;;;;;43.80;22.85;;;;;;;9.28;41.65;101661.78;4954848;29;20418;-77
2023/03/01 10:27:52;;;;;;;47.40;22.25;;;;;;;9.09;41.65;101659.88;4924247;29;20464;-75
2023/03/01 10:30:39;;;;;;;40.13;22.60;;;;;;;9.03;40.44;101665.31;4956172;29;20023;-75
2023/03/01 10:33:18;;;;;;;38.67;21.00;;;;;;;8.84;41.26;101652.00;4939930;29;20047;-76
2023/03/01 10:35:44;;;;;;;38.53;21.85;;;;;;;8.75;42.34;101646.13;4951953;29;20067;-75
2023/03/01 10:38:13;;;;;;;46.13;22.77;;;;;;;8.74;43.79;101655.94;4936398;29;20494;-76
2023/03/01 10:40:52;;;;;;;44.17;22.05;;;;;;;8.78;43.85;101651.72;4920858;29;20126;-75
2023/03/01 10:43:19;;;;;;;42.33;21.55;;;;;;;8.87;44.38;101656.78;4937511;29;20028;-77
2023/03/01 10:45:45;;;;;;;40.53;23.25;;;;;;;8.90;44.81;101655.91;4936202;29;20175;-77
2023/03/01 10:48:20;;;;;;;35.53;19.38;;;;;;;8.91;44.30;101653.84;4937546;29;20030;-76
2023/03/01 10:50:49;;;;;;;33.05;20.42;;;;;;;8.79;43.48;101650.50;4937201;29;20028;-76
2023/03/01 10:53:31;;;;;;;31.98;19.52;;;;;;;8.69;43.46;101642.22;4920559;29;20027;-74
2023/03/01 10:56:00;;;;;;;33.95;19.30;;;;;;;8.62;42.96;101640.34;4936847;29;20032;-74
2023/03/01 10:59:17;;;;;;;30.17;18.17;;;;;;;8.51;42.20;101645.50;4936225;29;20046;-76
2023/03/01 11:01:43;;;;;;;30.55;17.02;;;;;;;8.33;42.43;101633.78;4951895;29;20427;-75
2023/03/01 11:04:13;;;;;;;27.52;15.40;;;;;;;8.19;41.12;101634.13;4935769;29;20099;-75
2023/03/01 11:06:58;;;;;;;30.80;17.67;;;;;;;7.97;41.48;101628.09;4920082;29;20027;-74
2023/03/01 11:09:27;;;;;;;35.47;18.02;;;;;;;7.76;42.03;101625.78;4936303;29;20035;-75
2023/03/01 11:11:59;;;;;;;29.80;18.92;;;;;;;7.46;42.53;101612.63;4920294;29;20510;-74
2023/03/01 11:14:32;;;;;;;34.72;18.45;;;;;;;7.43;42.97;101619.16;4935721;29;20121;-75
2023/03/01 11:17:23;;;;;;;32.05;20.55;;;;;;;7.35;43.71;101627.06;4935651;29;20031;-76
2023/03/01 11:20:15;;;;;;;31.67;18.40;;;;;;;7.08;44.51;101615.03;4936117;29;20217;-74
2023/03/01 11:23:01;;;;;;;38.05;20.08;;;;;;;6.92;45.02;101617.81;4937137;29;20083;-75